createdAt,value
2018-11-20T00:04:25.712Z,11.00
2018-11-20T00:10:26.325Z,12.90
2018-11-20T00:13:32.971Z,12.83
2018-11-20T00:16:20.682Z,12.83
2018-11-20T00:19:20.356Z,13.37
2018-11-20T00:21:58.120Z,13.47
2018-11-20T00:27:45.264Z,12.00
2018-11-20T00:33:47.392Z,10.70
2018-11-20T00:39:49.708Z,11.90
2018-11-20T00:42:37.461Z,12.60
2018-11-20T00:45:24.916Z,13.37
2018-11-20T00:51:28.723Z,14.90
2018-11-20T00:54:16.312Z,15.10
2018-11-20T00:57:03.951Z,15.20
2018-11-20T00:59:53.739Z,14.73
2018-11-20T01:02:41.482Z,15.73
2018-11-20T01:05:29.277Z,14.63
2018-11-20T01:08:16.976Z,15.43
2018-11-20T01:13:52.449Z,14.80
2018-11-20T01:16:40.105Z,16.73
2018-11-20T01:19:39.866Z,14.73
2018-11-20T01:25:44.200Z,15.53
2018-11-20T01:28:31.993Z,15.77
2018-11-20T01:34:15.336Z,16.03
2018-11-20T01:37:03.201Z,14.53
2018-11-20T01:39:57.213Z,14.40
2018-11-20T01:45:34.685Z,14.50
2018-11-20T01:48:22.282Z,13.20
2018-11-20T01:51:09.945Z,13.97
2018-11-20T01:53:45.212Z,14.47
2018-11-20T01:56:32.741Z,12.77
2018-11-20T01:59:20.585Z,13.33
2018-11-20T02:02:08.151Z,14.87
2018-11-20T02:04:55.798Z,13.87
2018-11-20T02:07:43.517Z,14.57
2018-11-20T02:10:31.216Z,12.83
2018-11-20T02:14:01.931Z,14.63
2018-11-20T02:16:52.148Z,14.40
2018-11-20T02:22:47.016Z,12.63
2018-11-20T02:25:39.636Z,14.10
2018-11-20T02:31:27.717Z,14.03
2018-11-20T02:34:18.091Z,12.97
2018-11-20T02:36:57.641Z,13.83
2018-11-20T02:39:45.330Z,13.00
2018-11-20T02:42:33.082Z,14.73
2018-11-20T02:45:21.481Z,16.00
2018-11-20T02:48:09.298Z,14.80
2018-11-20T02:50:57.043Z,13.60
2018-11-20T02:53:44.988Z,14.60
2018-11-20T02:56:34.986Z,15.40
2018-11-20T02:59:22.669Z,12.80
2018-11-20T03:02:10.547Z,13.57
2018-11-20T03:04:58.339Z,14.20
2018-11-20T03:07:46.082Z,13.30
2018-11-20T03:10:33.698Z,14.47
2018-11-20T03:13:27.472Z,14.30
2018-11-20T03:16:15.189Z,14.03
2018-11-20T03:19:03.041Z,13.53
2018-11-20T03:21:50.878Z,15.10
2018-11-20T03:24:38.807Z,14.63
2018-11-20T03:27:26.444Z,11.43
2018-11-20T03:30:41.573Z,13.80
2018-11-20T03:36:44.105Z,12.67
2018-11-20T03:39:32.053Z,14.53
2018-11-20T03:42:16.235Z,13.80
2018-11-20T03:45:08.414Z,15.97
2018-11-20T03:47:56.156Z,14.20
2018-11-20T03:50:58.283Z,13.93
2018-11-20T03:53:37.500Z,13.90
2018-11-20T03:56:25.092Z,15.33
2018-11-20T04:02:08.957Z,15.30
2018-11-20T04:04:56.825Z,15.40
2018-11-20T04:10:51.637Z,14.20
2018-11-20T04:16:46.662Z,15.90
2018-11-20T04:19:34.158Z,14.77
2018-11-20T04:22:21.926Z,14.87
2018-11-20T04:28:40.378Z,14.53
2018-11-20T04:32:06.053Z,14.90
2018-11-20T04:34:53.835Z,14.37
2018-11-20T04:40:54.802Z,14.70
2018-11-20T04:43:54.391Z,16.33
2018-11-20T04:46:43.332Z,15.33
2018-11-20T04:52:33.203Z,15.70
2018-11-20T04:55:21.116Z,15.87
2018-11-20T04:58:09.044Z,15.80
2018-11-20T05:00:56.881Z,16.47
2018-11-20T05:03:45.499Z,16.60
2018-11-20T05:06:25.499Z,17.40
2018-11-20T05:09:13.961Z,16.70
2018-11-20T05:12:01.655Z,16.10
2018-11-20T05:14:40.338Z,15.60
2018-11-20T05:17:27.868Z,15.87
2018-11-20T05:20:18.123Z,16.60
2018-11-20T05:23:11.440Z,16.60
2018-11-20T05:26:18.328Z,16.90
2018-11-20T05:29:05.943Z,17.60
2018-11-20T05:31:53.522Z,17.93
2018-11-20T05:37:46.380Z,19.53
2018-11-20T05:40:34.155Z,17.67
2018-11-20T05:43:22.669Z,18.37
2018-11-20T05:48:59.525Z,19.87
2018-11-20T05:51:47.173Z,21.33
2018-11-20T05:54:34.834Z,20.93
2018-11-20T06:00:45.016Z,17.87
2018-11-20T06:03:51.750Z,20.67
2018-11-20T06:06:40.205Z,18.67
2018-11-20T06:09:28.258Z,20.33
2018-11-20T06:12:16.021Z,20.83
2018-11-20T06:15:03.726Z,20.30
2018-11-20T06:17:51.598Z,19.50
2018-11-20T06:20:39.282Z,19.20
2018-11-20T06:23:27.129Z,20.63
2018-11-20T06:26:15.148Z,22.77
2018-11-20T06:29:02.878Z,23.93
2018-11-20T06:32:02.041Z,25.20
2018-11-20T06:40:52.412Z,26.60
2018-11-20T06:43:39.909Z,25.00
2018-11-20T06:46:27.595Z,24.57
2018-11-20T06:49:15.312Z,26.47
2018-11-20T06:52:03.275Z,21.23
2018-11-20T06:54:50.898Z,18.70
2018-11-20T06:57:38.416Z,21.63
2018-11-20T07:00:26.059Z,21.97
2018-11-20T07:03:13.773Z,20.40
2018-11-20T07:09:08.501Z,21.53
2018-11-20T07:15:03.569Z,20.93
2018-11-20T07:17:51.250Z,20.33
2018-11-20T07:20:38.871Z,18.97
2018-11-20T07:26:51.383Z,19.70
2018-11-20T07:29:39.011Z,18.40
2018-11-20T07:32:31.330Z,18.20
2018-11-20T07:38:32.681Z,16.40
2018-11-20T07:44:37.783Z,16.93
2018-11-20T07:47:17.367Z,19.97
2018-11-20T07:50:05.152Z,18.90
2018-11-20T07:56:00.093Z,17.03
2018-11-20T07:58:47.640Z,15.90
2018-11-20T08:01:36.415Z,17.43
2018-11-20T08:04:14.410Z,18.17
2018-11-20T08:07:02.101Z,19.13
2018-11-20T08:09:49.741Z,17.13
2018-11-20T08:12:56.437Z,20.93
2018-11-20T08:15:44.049Z,18.87
2018-11-20T08:18:17.952Z,18.53
2018-11-20T08:21:08.403Z,18.63
2018-11-20T08:23:57.414Z,19.83
2018-11-20T08:26:43.890Z,17.40
2018-11-20T08:29:33.435Z,18.90
2018-11-20T08:32:22.048Z,18.83
2018-11-20T08:41:22.028Z,17.70
2018-11-20T08:47:17.062Z,18.60
2018-11-20T08:53:11.945Z,18.30
2018-11-20T08:59:22.449Z,21.00
2018-11-20T09:02:10.440Z,20.60
2018-11-20T09:04:58.105Z,19.17
2018-11-20T09:07:45.837Z,19.33
2018-11-20T09:10:33.599Z,19.73
2018-11-20T09:13:21.195Z,17.20
2018-11-20T09:16:08.936Z,19.93
2018-11-20T09:18:56.525Z,18.77
2018-11-20T09:21:44.202Z,18.60
2018-11-20T09:24:31.846Z,18.43
2018-11-20T09:27:24.825Z,18.17
2018-11-20T09:30:12.792Z,18.53
2018-11-20T09:33:00.442Z,17.87
2018-11-20T09:36:02.906Z,18.73
2018-11-20T09:38:50.715Z,19.57
2018-11-20T09:44:58.197Z,18.13
2018-11-20T09:47:45.935Z,19.10
2018-11-20T09:50:35.191Z,18.00
2018-11-20T09:53:22.935Z,18.20
2018-11-20T09:56:06.977Z,18.87
2018-11-20T09:58:54.660Z,18.33
2018-11-20T10:01:42.322Z,18.77
2018-11-20T10:07:18.579Z,19.57
2018-11-20T10:10:06.122Z,19.10
2018-11-20T10:12:53.941Z,18.70
2018-11-20T10:15:46.836Z,19.80
2018-11-20T10:18:34.491Z,20.67
2018-11-20T10:21:22.987Z,17.20
2018-11-20T10:24:10.678Z,18.17
2018-11-20T10:26:58.447Z,19.93
2018-11-20T10:33:01.467Z,18.53
2018-11-20T10:36:00.994Z,20.00
2018-11-20T10:38:51.203Z,17.23
2018-11-20T10:41:39.000Z,19.37
2018-11-20T10:47:50.239Z,17.30
2018-11-20T10:53:43.674Z,19.97
2018-11-20T10:59:49.090Z,17.97
2018-11-20T11:02:38.010Z,21.30
2018-11-20T11:05:47.375Z,20.30
2018-11-20T11:08:35.100Z,19.50
2018-11-20T11:14:29.929Z,15.73
2018-11-20T11:17:17.427Z,17.97
2018-11-20T11:20:05.214Z,19.00
2018-11-20T11:22:52.897Z,20.70
2018-11-20T11:25:40.480Z,19.87
2018-11-20T11:28:28.486Z,18.37
2018-11-20T11:31:21.094Z,19.40
2018-11-20T11:34:08.853Z,17.10
2018-11-20T11:36:56.500Z,19.63
2018-11-20T11:39:45.898Z,19.70
2018-11-20T11:42:33.620Z,20.30
2018-11-20T11:45:21.315Z,19.30
2018-11-20T11:48:08.958Z,19.50
2018-11-20T11:53:55.594Z,20.60
2018-11-20T11:56:44.691Z,19.87
2018-11-20T11:59:34.334Z,20.83
2018-11-20T12:04:59.590Z,21.27
2018-11-20T12:07:39.712Z,21.53
2018-11-20T12:10:27.911Z,21.20
2018-11-20T12:16:21.513Z,20.50
2018-11-20T12:19:09.183Z,21.30
2018-11-20T12:21:56.893Z,20.47
2018-11-20T12:27:47.486Z,21.17
2018-11-20T12:30:35.056Z,20.10
2018-11-20T12:33:23.983Z,19.93
2018-11-20T12:36:12.297Z,20.30
2018-11-20T12:39:10.127Z,19.93
2018-11-20T12:41:57.959Z,19.63
2018-11-20T12:47:36.850Z,22.00
2018-11-20T12:50:37.344Z,19.43
2018-11-20T12:53:24.939Z,21.33
2018-11-20T12:56:14.031Z,23.13
2018-11-20T12:59:11.721Z,24.33
2018-11-20T13:01:59.308Z,20.27
2018-11-20T13:04:46.866Z,21.13
2018-11-20T13:07:34.563Z,20.23
2018-11-20T13:10:22.302Z,21.13
2018-11-20T13:13:10.024Z,21.27
2018-11-20T13:15:47.171Z,20.80
2018-11-20T13:18:33.766Z,20.93
2018-11-20T13:21:23.894Z,21.73
2018-11-20T13:24:13.384Z,20.47
2018-11-20T13:27:05.938Z,22.07
2018-11-20T13:29:59.310Z,22.23
2018-11-20T13:35:34.776Z,21.00
2018-11-20T13:38:22.424Z,20.47
2018-11-20T13:41:51.910Z,21.37
2018-11-20T13:44:49.565Z,22.03
2018-11-20T13:47:36.751Z,21.13
2018-11-20T13:50:25.235Z,21.77
2018-11-20T13:53:13.011Z,19.80
2018-11-20T13:59:13.957Z,20.37
2018-11-20T14:02:01.641Z,18.83
2018-11-20T14:05:00.783Z,22.47
2018-11-20T14:07:40.682Z,19.80
2018-11-20T14:10:29.354Z,19.73
2018-11-20T14:16:14.376Z,22.93
2018-11-20T14:22:43.279Z,20.37
2018-11-20T14:25:40.003Z,24.30
2018-11-20T14:28:45.434Z,25.40
2018-11-20T14:31:32.047Z,27.10
2018-11-20T14:34:11.888Z,25.93
2018-11-20T14:37:11.249Z,25.77
2018-11-20T14:43:17.983Z,32.23
2018-11-20T14:52:08.850Z,32.67
2018-11-20T14:54:56.423Z,36.10
2018-11-20T14:57:44.107Z,39.77
2018-11-20T15:03:48.018Z,38.50
2018-11-20T15:06:47.227Z,40.10
2018-11-20T15:09:41.596Z,44.17
2018-11-20T15:12:34.064Z,39.30
2018-11-20T15:15:21.732Z,44.23
2018-11-20T15:21:34.973Z,42.23
2018-11-20T15:24:22.683Z,43.63
2018-11-20T15:27:19.573Z,40.87
2018-11-20T15:30:24.814Z,41.30
2018-11-20T15:33:30.038Z,44.23
2018-11-20T15:36:17.748Z,40.50
2018-11-20T15:39:07.731Z,43.40
2018-11-20T15:41:51.631Z,45.07
2018-11-20T15:44:32.263Z,46.17
2018-11-20T15:47:38.843Z,47.20
2018-11-20T15:50:28.091Z,42.30
2018-11-20T15:53:15.616Z,43.40
2018-11-20T15:56:03.391Z,40.40
2018-11-20T15:58:53.431Z,44.57
2018-11-20T16:04:44.163Z,43.03
2018-11-20T16:07:31.948Z,41.17
2018-11-20T16:10:35.403Z,41.13
2018-11-20T16:13:48.663Z,34.83
2018-11-20T16:16:54.329Z,39.70
2018-11-20T16:19:42.000Z,37.27
2018-11-20T16:22:48.616Z,39.87
2018-11-20T16:25:36.339Z,37.83
2018-11-20T16:28:24.011Z,41.07
2018-11-20T16:34:08.609Z,33.43
2018-11-20T16:37:14.090Z,34.80
2018-11-20T16:40:13.177Z,28.43
2018-11-20T16:43:11.263Z,31.37
2018-11-20T16:45:58.973Z,31.90
2018-11-20T16:52:10.203Z,25.20
2018-11-20T16:54:57.943Z,27.00
2018-11-20T17:00:53.605Z,28.77
2018-11-20T17:03:41.380Z,26.63
2018-11-20T17:06:29.037Z,29.03
2018-11-20T17:09:25.774Z,27.10
2018-11-20T17:12:13.365Z,26.20
2018-11-20T17:15:01.088Z,26.33
2018-11-20T17:17:48.841Z,26.70
2018-11-20T17:20:47.983Z,27.57
2018-11-20T17:23:35.666Z,28.17
2018-11-20T17:26:23.293Z,27.13
2018-11-20T17:29:11.087Z,25.70
2018-11-20T17:31:58.710Z,26.97
2018-11-20T17:34:49.469Z,26.77
2018-11-20T17:37:37.283Z,26.70
2018-11-20T17:40:32.433Z,26.30
2018-11-20T17:43:15.161Z,27.57
2018-11-20T17:46:17.830Z,25.00
2018-11-20T17:49:05.417Z,25.17
2018-11-20T17:55:10.088Z,24.77
2018-11-20T17:57:58.044Z,27.80
2018-11-20T18:00:57.852Z,25.93
2018-11-20T18:03:45.623Z,26.27
2018-11-20T18:06:34.401Z,24.70
2018-11-20T18:09:25.766Z,24.37
2018-11-20T18:12:32.486Z,25.53
2018-11-20T18:15:20.232Z,25.43
2018-11-20T18:18:08.035Z,22.83
2018-11-20T18:20:55.728Z,22.60
2018-11-20T18:23:43.585Z,22.20
2018-11-20T18:30:17.010Z,24.53
2018-11-20T18:33:04.737Z,24.37
2018-11-20T18:38:59.375Z,23.73
2018-11-20T18:41:47.075Z,21.53
2018-11-20T18:44:34.899Z,23.00
2018-11-20T18:47:27.097Z,21.97
2018-11-20T18:50:14.788Z,24.87
2018-11-20T18:53:14.582Z,23.67
2018-11-20T18:55:59.872Z,24.70
2018-11-20T18:58:47.451Z,21.10
2018-11-20T19:01:40.527Z,25.53
2018-11-20T19:04:31.941Z,21.70
2018-11-20T19:07:19.837Z,21.03
2018-11-20T19:10:22.508Z,23.07
2018-11-20T19:13:10.122Z,24.40
2018-11-20T19:16:09.278Z,24.13
2018-11-20T19:22:14.665Z,21.23
2018-11-20T19:27:42.929Z,25.90
2018-11-20T19:30:30.594Z,20.53
2018-11-20T19:33:19.168Z,24.27
2018-11-20T19:36:07.831Z,23.57
2018-11-20T19:38:58.190Z,22.67
2018-11-20T19:44:47.652Z,24.47
2018-11-20T19:47:35.316Z,23.07
2018-11-20T19:50:23.292Z,24.67
2018-11-20T19:56:28.694Z,24.40
2018-11-20T20:02:43.332Z,22.40
2018-11-20T20:11:37.020Z,25.37
2018-11-20T20:14:31.424Z,23.77
2018-11-20T20:17:19.189Z,25.50
2018-11-20T20:23:13.878Z,26.23
2018-11-20T20:26:13.390Z,28.60
2018-11-20T20:28:53.432Z,26.57
2018-11-20T20:31:41.141Z,23.97
2018-11-20T20:34:34.095Z,25.40
2018-11-20T20:37:26.965Z,25.17
2018-11-20T20:40:11.226Z,23.90
2018-11-20T20:42:59.267Z,22.63
2018-11-20T20:45:46.917Z,25.20
2018-11-20T20:48:35.884Z,25.03
2018-11-20T20:51:33.962Z,24.23
2018-11-20T20:54:32.812Z,25.40
2018-11-20T20:57:20.578Z,26.53
2018-11-20T21:00:08.281Z,29.33
2018-11-20T21:05:46.288Z,25.47
2018-11-20T21:08:36.052Z,25.03
2018-11-20T21:11:17.268Z,27.10
2018-11-20T21:14:22.872Z,27.77
2018-11-20T21:17:22.416Z,26.53
2018-11-20T21:20:20.103Z,27.50
2018-11-20T21:23:19.916Z,25.17
2018-11-20T21:26:07.599Z,25.33
2018-11-20T21:28:55.249Z,26.00
2018-11-20T21:31:42.901Z,26.00
2018-11-20T21:37:45.874Z,28.13
2018-11-20T21:40:49.115Z,26.13
2018-11-20T21:43:40.255Z,25.97
2018-11-20T21:47:32.427Z,27.60
2018-11-20T21:50:19.199Z,28.73
2018-11-20T21:53:05.999Z,26.33
2018-11-20T21:56:05.310Z,27.50
2018-11-20T21:59:04.414Z,25.97
2018-11-20T22:01:52.348Z,27.93
2018-11-20T22:04:39.230Z,24.70
2018-11-20T22:07:45.813Z,27.07
2018-11-20T22:10:32.635Z,26.23
2018-11-20T22:13:19.806Z,27.77
2018-11-20T22:16:06.650Z,29.20
2018-11-20T22:18:53.704Z,27.23
2018-11-20T22:21:40.601Z,27.67
2018-11-20T22:24:18.948Z,28.50
2018-11-20T22:27:15.219Z,26.50
2018-11-20T22:30:02.141Z,27.83
2018-11-20T22:35:49.025Z,28.60
2018-11-20T22:38:48.736Z,29.07
2018-11-20T22:41:35.615Z,26.07
2018-11-20T22:44:34.872Z,28.93
2018-11-20T22:50:21.528Z,27.63
2018-11-20T22:53:21.154Z,30.13
2018-11-20T22:56:07.895Z,27.43
2018-11-20T22:58:55.786Z,28.97
2018-11-20T23:08:03.696Z,28.20
2018-11-20T23:10:31.037Z,28.80
2018-11-20T23:13:18.086Z,29.47
2018-11-20T23:15:45.690Z,28.80
2018-11-20T23:18:13.067Z,30.23
2018-11-20T23:21:21.269Z,28.03
2018-11-20T23:24:01.195Z,28.90
2018-11-20T23:26:28.570Z,28.90
2018-11-20T23:29:15.848Z,29.47
2018-11-20T23:31:43.297Z,30.53
2018-11-20T23:34:30.004Z,29.57
2018-11-20T23:37:10.263Z,28.90
2018-11-20T23:39:49.807Z,31.30
2018-11-20T23:42:20.580Z,31.70
2018-11-20T23:44:44.728Z,26.13
2018-11-20T23:47:12.155Z,30.87
2018-11-20T23:49:58.987Z,28.70
2018-11-20T23:52:26.420Z,30.73
2018-11-20T23:55:13.105Z,30.90
2018-11-20T23:57:40.883Z,28.07
